sensor_id;sensor_type;location;lat;lon;timestamp;temperature;humidity
3310;DHT22;1667;53.238;10.394;2024-03-17T00:01:21;9.20;99.90
3310;DHT22;1667;53.238;10.394;2024-03-17T00:06:19;8.90;99.90
3310;DHT22;1667;53.238;10.394;2024-03-17T00:11:18;9.10;99.90
3310;DHT22;1667;53.238;10.394;2024-03-17T00:16:17;8.80;99.90
3310;DHT22;1667;53.238;10.394;2024-03-17T00:21:15;8.80;99.90
3310;DHT22;1667;53.238;10.394;2024-03-17T00:26:13;8.70;99.90
3310;DHT22;1667;53.238;10.394;2024-03-17T00:31:13;8.80;99.90
3310;DHT22;1667;53.238;10.394;2024-03-17T00:36:11;8.70;99.90
3310;DHT22;1667;53.238;10.394;2024-03-17T00:41:09;8.90;99.90
3310;DHT22;1667;53.238;10.394;2024-03-17T00:46:07;8.90;99.90
3310;DHT22;1667;53.238;10.394;2024-03-17T00:51:07;8.70;99.90
3310;DHT22;1667;53.238;10.394;2024-03-17T00:56:05;8.90;99.90
3310;DHT22;1667;53.238;10.394;2024-03-17T01:01:03;8.80;99.90
3310;DHT22;1667;53.238;10.394;2024-03-17T01:06:03;8.60;99.90
3310;DHT22;1667;53.238;10.394;2024-03-17T01:11:03;8.60;99.90
3310;DHT22;1667;53.238;10.394;2024-03-17T01:16:05;8.50;99.90
3310;DHT22;1667;53.238;10.394;2024-03-17T01:21:04;8.70;99.90
3310;DHT22;1667;53.238;10.394;2024-03-17T01:26:04;8.50;99.90
3310;DHT22;1667;53.238;10.394;2024-03-17T01:31:05;8.50;99.90
3310;DHT22;1667;53.238;10.394;2024-03-17T01:36:03;8.40;99.90
3310;DHT22;1667;53.238;10.394;2024-03-17T01:41:03;8.40;99.90
3310;DHT22;1667;53.238;10.394;2024-03-17T01:46:02;8.40;99.90
3310;DHT22;1667;53.238;10.394;2024-03-17T01:51:01;8.40;99.90
3310;DHT22;1667;53.238;10.394;2024-03-17T01:56:00;8.40;99.90
3310;DHT22;1667;53.238;10.394;2024-03-17T02:00:59;8.30;99.90
3310;DHT22;1667;53.238;10.394;2024-03-17T02:05:58;8.50;99.90
3310;DHT22;1667;53.238;10.394;2024-03-17T02:10:56;8.30;99.90
3310;DHT22;1667;53.238;10.394;2024-03-17T02:15:54;8.30;99.90
3310;DHT22;1667;53.238;10.394;2024-03-17T02:20:52;8.20;99.90
3310;DHT22;1667;53.238;10.394;2024-03-17T02:25:57;8.10;99.90
3310;DHT22;1667;53.238;10.394;2024-03-17T02:30:55;8.10;99.90
3310;DHT22;1667;53.238;10.394;2024-03-17T02:35:53;8.30;99.90
3310;DHT22;1667;53.238;10.394;2024-03-17T02:40:51;8.30;99.90
3310;DHT22;1667;53.238;10.394;2024-03-17T02:45:51;8.30;99.90
3310;DHT22;1667;53.238;10.394;2024-03-17T02:50:49;8.10;99.90
3310;DHT22;1667;53.238;10.394;2024-03-17T02:55:48;8.30;99.90
3310;DHT22;1667;53.238;10.394;2024-03-17T03:00:46;8.00;99.90
3310;DHT22;1667;53.238;10.394;2024-03-17T03:05:45;8.00;99.90
3310;DHT22;1667;53.238;10.394;2024-03-17T03:10:45;8.20;99.90
3310;DHT22;1667;53.238;10.394;2024-03-17T03:15:44;7.90;99.90
3310;DHT22;1667;53.238;10.394;2024-03-17T03:20:51;7.90;99.90
3310;DHT22;1667;53.238;10.394;2024-03-17T03:25:54;8.00;99.90
3310;DHT22;1667;53.238;10.394;2024-03-17T03:30:54;8.00;99.90
3310;DHT22;1667;53.238;10.394;2024-03-17T03:35:53;7.70;99.90
3310;DHT22;1667;53.238;10.394;2024-03-17T03:40:52;7.80;99.90
3310;DHT22;1667;53.238;10.394;2024-03-17T03:45:50;7.70;99.90
3310;DHT22;1667;53.238;10.394;2024-03-17T03:50:48;7.70;99.90
3310;DHT22;1667;53.238;10.394;2024-03-17T03:55:47;7.70;99.90
3310;DHT22;1667;53.238;10.394;2024-03-17T04:00:45;7.60;99.90
3310;DHT22;1667;53.238;10.394;2024-03-17T04:05:43;7.60;99.90
3310;DHT22;1667;53.238;10.394;2024-03-17T04:10:43;7.60;99.90
3310;DHT22;1667;53.238;10.394;2024-03-17T04:15:42;7.70;99.90
3310;DHT22;1667;53.238;10.394;2024-03-17T04:20:41;7.60;99.90
3310;DHT22;1667;53.238;10.394;2024-03-17T04:25:39;7.60;99.90
3310;DHT22;1667;53.238;10.394;2024-03-17T04:30:39;7.50;99.90
3310;DHT22;1667;53.238;10.394;2024-03-17T04:35:39;7.50;99.90
3310;DHT22;1667;53.238;10.394;2024-03-17T04:40:40;7.40;99.90
3310;DHT22;1667;53.238;10.394;2024-03-17T04:45:38;7.30;99.90
3310;DHT22;1667;53.238;10.394;2024-03-17T04:50:36;7.30;99.90
3310;DHT22;1667;53.238;10.394;2024-03-17T04:55:35;7.20;99.90
3310;DHT22;1667;53.238;10.394;2024-03-17T05:00:33;7.20;99.90
3310;DHT22;1667;53.238;10.394;2024-03-17T05:05:31;7.10;99.90
3310;DHT22;1667;53.238;10.394;2024-03-17T05:10:29;7.20;99.90
3310;DHT22;1667;53.238;10.394;2024-03-17T05:15:28;7.10;99.90
3310;DHT22;1667;53.238;10.394;2024-03-17T05:20:26;7.10;99.90
3310;DHT22;1667;53.238;10.394;2024-03-17T05:25:24;7.00;99.90
3310;DHT22;1667;53.238;10.394;2024-03-17T05:30:22;7.00;99.90
3310;DHT22;1667;53.238;10.394;2024-03-17T05:35:24;7.00;99.90
3310;DHT22;1667;53.238;10.394;2024-03-17T05:40:22;6.90;99.90
3310;DHT22;1667;53.238;10.394;2024-03-17T05:45:20;7.10;99.90
3310;DHT22;1667;53.238;10.394;2024-03-17T05:50:18;7.00;99.90
3310;DHT22;1667;53.238;10.394;2024-03-17T05:55:18;6.90;99.90
3310;DHT22;1667;53.238;10.394;2024-03-17T06:00:16;6.90;99.90
3310;DHT22;1667;53.238;10.394;2024-03-17T06:05:14;6.90;99.90
3310;DHT22;1667;53.238;10.394;2024-03-17T06:10:12;6.80;99.90
3310;DHT22;1667;53.238;10.394;2024-03-17T06:15:12;6.80;99.90
3310;DHT22;1667;53.238;10.394;2024-03-17T06:20:10;6.80;99.90
3310;DHT22;1667;53.238;10.394;2024-03-17T06:25:10;6.80;99.90
3310;DHT22;1667;53.238;10.394;2024-03-17T06:30:12;6.80;99.90
3310;DHT22;1667;53.238;10.394;2024-03-17T06:35:11;6.80;99.90
3310;DHT22;1667;53.238;10.394;2024-03-17T06:40:10;6.90;99.90
3310;DHT22;1667;53.238;10.394;2024-03-17T06:45:11;6.80;99.90
3310;DHT22;1667;53.238;10.394;2024-03-17T06:50:10;6.80;99.90
3310;DHT22;1667;53.238;10.394;2024-03-17T06:55:08;6.80;99.90
3310;DHT22;1667;53.238;10.394;2024-03-17T07:00:07;6.90;99.90
3310;DHT22;1667;53.238;10.394;2024-03-17T07:05:15;7.00;99.90
3310;DHT22;1667;53.238;10.394;2024-03-17T07:10:13;7.10;99.90
3310;DHT22;1667;53.238;10.394;2024-03-17T07:15:12;7.30;99.90
3310;DHT22;1667;53.238;10.394;2024-03-17T07:20:10;7.30;99.90
3310;DHT22;1667;53.238;10.394;2024-03-17T07:25:11;7.40;99.90
3310;DHT22;1667;53.238;10.394;2024-03-17T07:30:10;7.60;99.90
3310;DHT22;1667;53.238;10.394;2024-03-17T07:35:07;7.60;99.90
3310;DHT22;1667;53.238;10.394;2024-03-17T07:40:05;7.80;99.90
3310;DHT22;1667;53.238;10.394;2024-03-17T07:45:06;7.90;99.90
3310;DHT22;1667;53.238;10.394;2024-03-17T07:50:05;8.00;99.90
3310;DHT22;1667;53.238;10.394;2024-03-17T07:55:04;8.10;99.90
3310;DHT22;1667;53.238;10.394;2024-03-17T08:00:03;8.30;99.90
3310;DHT22;1667;53.238;10.394;2024-03-17T08:05:02;8.40;99.90
3310;DHT22;1667;53.238;10.394;2024-03-17T08:10:02;8.50;99.90
3310;DHT22;1667;53.238;10.394;2024-03-17T08:15:00;8.60;99.90
3310;DHT22;1667;53.238;10.394;2024-03-17T08:19:58;8.70;99.90
3310;DHT22;1667;53.238;10.394;2024-03-17T08:24:57;8.90;99.90
3310;DHT22;1667;53.238;10.394;2024-03-17T08:29:55;9.00;99.90
3310;DHT22;1667;53.238;10.394;2024-03-17T08:34:53;9.40;99.90
3310;DHT22;1667;53.238;10.394;2024-03-17T08:39:52;9.30;99.90
3310;DHT22;1667;53.238;10.394;2024-03-17T08:44:50;9.60;99.90
3310;DHT22;1667;53.238;10.394;2024-03-17T08:49:50;9.80;99.90
3310;DHT22;1667;53.238;10.394;2024-03-17T08:54:48;9.60;99.90
3310;DHT22;1667;53.238;10.394;2024-03-17T08:59:49;9.70;99.90
3310;DHT22;1667;53.238;10.394;2024-03-17T09:04:49;10.00;99.90
3310;DHT22;1667;53.238;10.394;2024-03-17T09:09:47;10.50;99.90
3310;DHT22;1667;53.238;10.394;2024-03-17T09:14:47;10.90;99.90
3310;DHT22;1667;53.238;10.394;2024-03-17T09:19:47;10.90;99.90
3310;DHT22;1667;53.238;10.394;2024-03-17T09:24:45;11.00;99.90
3310;DHT22;1667;53.238;10.394;2024-03-17T09:29:44;11.00;99.90
3310;DHT22;1667;53.238;10.394;2024-03-17T09:34:42;10.90;99.90
3310;DHT22;1667;53.238;10.394;2024-03-17T09:39:42;11.30;99.90
3310;DHT22;1667;53.238;10.394;2024-03-17T09:44:40;11.10;99.90
3310;DHT22;1667;53.238;10.394;2024-03-17T09:49:39;11.10;99.90
3310;DHT22;1667;53.238;10.394;2024-03-17T09:54:37;11.40;99.90
3310;DHT22;1667;53.238;10.394;2024-03-17T09:59:36;11.60;99.90
3310;DHT22;1667;53.238;10.394;2024-03-17T10:04:34;11.90;99.90
3310;DHT22;1667;53.238;10.394;2024-03-17T10:09:33;11.70;99.90
3310;DHT22;1667;53.238;10.394;2024-03-17T10:14:31;11.80;99.90
3310;DHT22;1667;53.238;10.394;2024-03-17T10:19:31;12.00;99.90
3310;DHT22;1667;53.238;10.394;2024-03-17T10:24:29;12.20;99.90
3310;DHT22;1667;53.238;10.394;2024-03-17T10:29:29;12.50;99.90
3310;DHT22;1667;53.238;10.394;2024-03-17T10:34:28;12.70;99.90
3310;DHT22;1667;53.238;10.394;2024-03-17T10:39:33;13.00;99.90
3310;DHT22;1667;53.238;10.394;2024-03-17T10:44:31;12.90;99.90
3310;DHT22;1667;53.238;10.394;2024-03-17T10:49:31;12.90;99.90
3310;DHT22;1667;53.238;10.394;2024-03-17T11:01:26;12.90;99.90
3310;DHT22;1667;53.238;10.394;2024-03-17T11:06:24;13.00;99.90
3310;DHT22;1667;53.238;10.394;2024-03-17T11:11:35;13.10;99.90
3310;DHT22;1667;53.238;10.394;2024-03-17T11:16:34;13.30;99.90
3310;DHT22;1667;53.238;10.394;2024-03-17T11:21:32;13.60;99.90
3310;DHT22;1667;53.238;10.394;2024-03-17T11:26:33;13.70;99.90
3310;DHT22;1667;53.238;10.394;2024-03-17T11:31:43;13.70;99.90
3310;DHT22;1667;53.238;10.394;2024-03-17T11:36:43;13.90;99.90
3310;DHT22;1667;53.238;10.394;2024-03-17T11:41:41;14.20;99.90
3310;DHT22;1667;53.238;10.394;2024-03-17T11:46:42;14.50;99.90
3310;DHT22;1667;53.238;10.394;2024-03-17T11:51:41;14.60;99.90
3310;DHT22;1667;53.238;10.394;2024-03-17T11:56:39;14.30;99.90
3310;DHT22;1667;53.238;10.394;2024-03-17T12:01:37;14.40;99.90
3310;DHT22;1667;53.238;10.394;2024-03-17T12:06:36;14.70;99.90
3310;DHT22;1667;53.238;10.394;2024-03-17T12:11:35;15.00;99.90
3310;DHT22;1667;53.238;10.394;2024-03-17T12:16:33;14.80;99.90
3310;DHT22;1667;53.238;10.394;2024-03-17T12:21:31;14.90;99.90
3310;DHT22;1667;53.238;10.394;2024-03-17T12:26:32;15.10;99.90
3310;DHT22;1667;53.238;10.394;2024-03-17T12:31:33;15.20;99.90
3310;DHT22;1667;53.238;10.394;2024-03-17T12:36:31;15.10;99.90
3310;DHT22;1667;53.238;10.394;2024-03-17T12:41:29;15.00;99.90
3310;DHT22;1667;53.238;10.394;2024-03-17T12:46:27;15.30;99.90
3310;DHT22;1667;53.238;10.394;2024-03-17T12:51:26;15.50;99.70
3310;DHT22;1667;53.238;10.394;2024-03-17T12:56:25;15.60;98.80
3310;DHT22;1667;53.238;10.394;2024-03-17T13:01:40;15.40;97.80
3310;DHT22;1667;53.238;10.394;2024-03-17T13:06:39;15.10;99.80
3310;DHT22;1667;53.238;10.394;2024-03-17T13:11:38;15.20;99.90
3310;DHT22;1667;53.238;10.394;2024-03-17T13:16:36;15.30;99.90
3310;DHT22;1667;53.238;10.394;2024-03-17T13:21:34;15.30;98.10
3310;DHT22;1667;53.238;10.394;2024-03-17T13:26:33;14.90;96.70
3310;DHT22;1667;53.238;10.394;2024-03-17T13:31:32;14.80;98.50
3310;DHT22;1667;53.238;10.394;2024-03-17T13:36:29;14.30;96.80
3310;DHT22;1667;53.238;10.394;2024-03-17T13:41:28;14.20;95.00
3310;DHT22;1667;53.238;10.394;2024-03-17T13:46:27;13.80;96.40
3310;DHT22;1667;53.238;10.394;2024-03-17T13:51:25;13.40;95.50
3310;DHT22;1667;53.238;10.394;2024-03-17T13:56:23;13.40;96.00
3310;DHT22;1667;53.238;10.394;2024-03-17T14:01:21;13.30;96.40
3310;DHT22;1667;53.238;10.394;2024-03-17T14:06:20;13.50;96.80
3310;DHT22;1667;53.238;10.394;2024-03-17T14:11:18;13.70;97.50
3310;DHT22;1667;53.238;10.394;2024-03-17T14:16:16;13.70;99.00
3310;DHT22;1667;53.238;10.394;2024-03-17T14:21:14;13.60;98.10
3310;DHT22;1667;53.238;10.394;2024-03-17T14:26:12;13.60;98.30
3310;DHT22;1667;53.238;10.394;2024-03-17T14:31:11;13.20;97.00
3310;DHT22;1667;53.238;10.394;2024-03-17T14:36:09;13.10;97.10
3310;DHT22;1667;53.238;10.394;2024-03-17T14:41:07;13.20;99.90
3310;DHT22;1667;53.238;10.394;2024-03-17T14:46:06;13.50;99.40
3310;DHT22;1667;53.238;10.394;2024-03-17T14:51:07;13.30;99.70
3310;DHT22;1667;53.238;10.394;2024-03-17T14:56:05;13.10;98.30
3310;DHT22;1667;53.238;10.394;2024-03-17T15:01:03;13.20;99.90
3310;DHT22;1667;53.238;10.394;2024-03-17T15:06:03;13.50;99.90
3310;DHT22;1667;53.238;10.394;2024-03-17T15:11:01;13.70;99.90
3310;DHT22;1667;53.238;10.394;2024-03-17T15:15:59;13.70;99.90
3310;DHT22;1667;53.238;10.394;2024-03-17T15:21:00;13.50;97.90
3310;DHT22;1667;53.238;10.394;2024-03-17T15:26:03;13.50;99.40
3310;DHT22;1667;53.238;10.394;2024-03-17T15:31:05;12.90;99.90
3310;DHT22;1667;53.238;10.394;2024-03-17T15:36:04;12.90;99.80
3310;DHT22;1667;53.238;10.394;2024-03-17T15:41:04;12.50;98.20
3310;DHT22;1667;53.238;10.394;2024-03-17T15:46:06;12.50;99.90
3310;DHT22;1667;53.238;10.394;2024-03-17T15:51:04;12.60;99.90
3310;DHT22;1667;53.238;10.394;2024-03-17T15:56:04;12.60;99.90
3310;DHT22;1667;53.238;10.394;2024-03-17T16:01:05;12.70;99.90
3310;DHT22;1667;53.238;10.394;2024-03-17T16:06:06;13.00;99.90
3310;DHT22;1667;53.238;10.394;2024-03-17T16:11:10;12.70;99.60
3310;DHT22;1667;53.238;10.394;2024-03-17T16:16:14;12.70;99.90
3310;DHT22;1667;53.238;10.394;2024-03-17T16:21:14;12.90;99.90
3310;DHT22;1667;53.238;10.394;2024-03-17T16:26:14;12.40;99.90
3310;DHT22;1667;53.238;10.394;2024-03-17T16:31:12;12.30;99.40
3310;DHT22;1667;53.238;10.394;2024-03-17T16:36:11;12.00;99.90
3310;DHT22;1667;53.238;10.394;2024-03-17T16:41:09;12.10;99.90
3310;DHT22;1667;53.238;10.394;2024-03-17T16:46:20;12.10;99.90
3310;DHT22;1667;53.238;10.394;2024-03-17T16:51:23;12.30;99.90
3310;DHT22;1667;53.238;10.394;2024-03-17T16:56:21;12.40;99.90
3310;DHT22;1667;53.238;10.394;2024-03-17T17:01:20;12.30;99.90
3310;DHT22;1667;53.238;10.394;2024-03-17T17:06:20;12.20;99.90
3310;DHT22;1667;53.238;10.394;2024-03-17T17:11:18;11.80;99.90
3310;DHT22;1667;53.238;10.394;2024-03-17T17:16:16;11.90;99.90
3310;DHT22;1667;53.238;10.394;2024-03-17T17:21:17;11.90;99.90
3310;DHT22;1667;53.238;10.394;2024-03-17T17:26:16;12.00;99.90
3310;DHT22;1667;53.238;10.394;2024-03-17T17:31:14;11.90;99.90
3310;DHT22;1667;53.238;10.394;2024-03-17T17:36:12;11.80;99.90
3310;DHT22;1667;53.238;10.394;2024-03-17T17:41:12;11.80;99.90
3310;DHT22;1667;53.238;10.394;2024-03-17T17:46:12;11.40;99.90
3310;DHT22;1667;53.238;10.394;2024-03-17T17:51:12;11.70;99.90
3310;DHT22;1667;53.238;10.394;2024-03-17T17:56:13;11.40;99.90
3310;DHT22;1667;53.238;10.394;2024-03-17T18:01:12;11.50;99.90
3310;DHT22;1667;53.238;10.394;2024-03-17T18:06:11;11.30;99.90
3310;DHT22;1667;53.238;10.394;2024-03-17T18:11:10;11.30;99.90
3310;DHT22;1667;53.238;10.394;2024-03-17T18:16:14;11.40;99.90
3310;DHT22;1667;53.238;10.394;2024-03-17T18:21:12;11.40;99.90
3310;DHT22;1667;53.238;10.394;2024-03-17T18:26:12;11.20;99.90
3310;DHT22;1667;53.238;10.394;2024-03-17T18:31:11;11.10;99.90
3310;DHT22;1667;53.238;10.394;2024-03-17T18:36:10;11.00;99.90
3310;DHT22;1667;53.238;10.394;2024-03-17T18:41:09;10.90;99.90
3310;DHT22;1667;53.238;10.394;2024-03-17T18:46:08;10.90;99.90
3310;DHT22;1667;53.238;10.394;2024-03-17T18:51:06;10.80;99.90
3310;DHT22;1667;53.238;10.394;2024-03-17T18:56:07;10.70;99.90
3310;DHT22;1667;53.238;10.394;2024-03-17T19:01:05;10.60;99.90
3310;DHT22;1667;53.238;10.394;2024-03-17T19:06:08;10.50;99.90
3310;DHT22;1667;53.238;10.394;2024-03-17T19:11:07;10.40;99.90
3310;DHT22;1667;53.238;10.394;2024-03-17T19:16:07;10.40;99.90
3310;DHT22;1667;53.238;10.394;2024-03-17T19:21:06;10.70;99.90
3310;DHT22;1667;53.238;10.394;2024-03-17T19:26:08;10.20;99.90
3310;DHT22;1667;53.238;10.394;2024-03-17T19:31:08;10.10;99.90
3310;DHT22;1667;53.238;10.394;2024-03-17T19:36:07;9.80;99.90
3310;DHT22;1667;53.238;10.394;2024-03-17T19:41:07;9.80;99.90
3310;DHT22;1667;53.238;10.394;2024-03-17T19:46:07;10.20;99.90
3310;DHT22;1667;53.238;10.394;2024-03-17T19:51:07;10.10;99.90
3310;DHT22;1667;53.238;10.394;2024-03-17T19:56:08;9.90;99.90
3310;DHT22;1667;53.238;10.394;2024-03-17T20:01:07;10.20;99.90
3310;DHT22;1667;53.238;10.394;2024-03-17T20:06:05;10.10;99.90
3310;DHT22;1667;53.238;10.394;2024-03-17T20:11:04;10.00;99.90
3310;DHT22;1667;53.238;10.394;2024-03-17T20:16:03;10.10;99.90
3310;DHT22;1667;53.238;10.394;2024-03-17T20:21:03;10.00;99.90
3310;DHT22;1667;53.238;10.394;2024-03-17T20:26:01;10.10;99.90
3310;DHT22;1667;53.238;10.394;2024-03-17T20:31:03;10.20;99.90
3310;DHT22;1667;53.238;10.394;2024-03-17T20:36:01;10.20;99.90
3310;DHT22;1667;53.238;10.394;2024-03-17T20:40:59;10.20;99.90
3310;DHT22;1667;53.238;10.394;2024-03-17T20:45:58;10.10;99.90
3310;DHT22;1667;53.238;10.394;2024-03-17T20:50:57;10.20;99.90
3310;DHT22;1667;53.238;10.394;2024-03-17T20:55:55;10.50;99.90
3310;DHT22;1667;53.238;10.394;2024-03-17T21:00:52;10.10;99.90
3310;DHT22;1667;53.238;10.394;2024-03-17T21:05:50;10.10;99.90
3310;DHT22;1667;53.238;10.394;2024-03-17T21:10:57;10.20;99.90
3310;DHT22;1667;53.238;10.394;2024-03-17T21:15:56;10.20;99.90
3310;DHT22;1667;53.238;10.394;2024-03-17T21:21:01;10.10;99.90
3310;DHT22;1667;53.238;10.394;2024-03-17T21:26:00;10.20;99.90
3310;DHT22;1667;53.238;10.394;2024-03-17T21:37:48;10.00;99.90
3310;DHT22;1667;53.238;10.394;2024-03-17T21:42:47;10.10;99.90
3310;DHT22;1667;53.238;10.394;2024-03-17T21:47:46;10.00;99.90
3310;DHT22;1667;53.238;10.394;2024-03-17T21:52:46;10.20;99.90
3310;DHT22;1667;53.238;10.394;2024-03-17T21:57:44;9.90;99.90
3310;DHT22;1667;53.238;10.394;2024-03-17T22:02:43;9.90;99.90
3310;DHT22;1667;53.238;10.394;2024-03-17T22:07:41;9.80;99.90
3310;DHT22;1667;53.238;10.394;2024-03-17T22:12:39;9.60;99.90
3310;DHT22;1667;53.238;10.394;2024-03-17T22:17:37;9.60;99.90
3310;DHT22;1667;53.238;10.394;2024-03-17T22:22:36;9.60;99.90
3310;DHT22;1667;53.238;10.394;2024-03-17T22:27:35;9.70;99.90
3310;DHT22;1667;53.238;10.394;2024-03-17T22:32:33;9.60;99.90
3310;DHT22;1667;53.238;10.394;2024-03-17T22:37:30;9.70;99.90
3310;DHT22;1667;53.238;10.394;2024-03-17T22:42:30;9.60;99.90
3310;DHT22;1667;53.238;10.394;2024-03-17T22:47:27;9.50;99.90
3310;DHT22;1667;53.238;10.394;2024-03-17T22:52:25;9.50;99.90
3310;DHT22;1667;53.238;10.394;2024-03-17T22:57:24;9.30;99.90
3310;DHT22;1667;53.238;10.394;2024-03-17T23:02:23;9.60;99.90
3310;DHT22;1667;53.238;10.394;2024-03-17T23:07:21;9.20;99.90
3310;DHT22;1667;53.238;10.394;2024-03-17T23:12:19;9.30;99.90
3310;DHT22;1667;53.238;10.394;2024-03-17T23:17:17;8.90;99.90
3310;DHT22;1667;53.238;10.394;2024-03-17T23:22:17;9.20;99.90
3310;DHT22;1667;53.238;10.394;2024-03-17T23:27:15;9.10;99.90
3310;DHT22;1667;53.238;10.394;2024-03-17T23:32:13;9.40;99.90
3310;DHT22;1667;53.238;10.394;2024-03-17T23:37:11;9.10;99.90
3310;DHT22;1667;53.238;10.394;2024-03-17T23:42:10;9.10;99.90
3310;DHT22;1667;53.238;10.394;2024-03-17T23:47:08;8.90;99.90
3310;DHT22;1667;53.238;10.394;2024-03-17T23:52:06;8.80;99.90
3310;DHT22;1667;53.238;10.394;2024-03-17T23:57:04;8.70;99.90
